Capitol Logistics 970

Operating for DHL



LIMJ
Genoa Cristoforo Colombo Airport
Genoa, IT
LIRF
Leonardo da Vinci International Airport
Rome, IT

Activity Log

Date Flight Route Aircraft Duration
01/26/2022 CPX970 GEN8K GEN M730 BEROK Q705 XIBIL XIBI3C A31F 0h 59m

Route Details

Aircraft Information
Group: European Fleet
Types: A30F,A31F,B738
Route Data
Demand: V
Distance: 217nm
Duration: 1h 14m
Recm'd Route: GEN8K GEN M730 BEROK Q705 XIBIL XIBI3C
Origin Wx: LIMJ 270520Z 03016KT CAVOK 24/17 Q1016
Dest. Wx: LIRF 270520Z 08009KT 050V130 CAVOK 26/13 Q1014 RMK WS RWY 16L NOSIG
Notes:

Financial History
Total Freight: 36,729lbs
Average Load: 36,729lbs/flt
Fuel Used: 10,965lbs
Avg. Fuel Used: 10,965lbs/flt
Fuel Expense: $4,167
Avg. Fuel Expense: $4,167
Avg. Fuel Cost: $0.38/lbs
Total Gross Income: $74,964
Pilot Pay: $239
Total Expenses: $11,836
Total Revenue: $58,820
Average Revenue: $74,963.89